WetterOnline ( https://www.wetteronline.de )

Wetter aktuell Lindberg

Aktuelles Wetter: Churanov (1122m)

6-stündlich | Neueste Meldungen
Ortszeit Temperatur Wetter
Mo, 20.05. 20:00 14.9° C wolkig
Mo, 20.05. 14:00 15.0° C wolkig
Mo, 20.05. 8:00 11.6° C fast wolkenlos
Mo, 20.05. 2:00 8.6° C leicht bewölkt
So, 19.05. 20:00 11.1° C leicht bewölkt
So, 19.05. 14:00 14.0° C bewölkt
So, 19.05. 8:00 8.5° C leicht bewölkt
So, 19.05. 2:00 7.7° C leichter Regen
Ortszeit Temperatur Wetter
Di, 21.05. 1:00 12.6° C bewölkt
Di, 21.05. 0:00 12.6° C bewölkt
Mo, 20.05. 23:00 12.8° C fast wolkenlos
Mo, 20.05. 22:00 13.0° C leicht bewölkt
Mo, 20.05. 21:00 13.3° C wolkig
Mo, 20.05. 20:00 14.9° C wolkig
Ortszeit Relative Feuchte Sichtweite
Mo, 20.05. 20:00 64% 70 km
Mo, 20.05. 14:00 75% 70 km
Mo, 20.05. 8:00 80% 60 km
Mo, 20.05. 2:00 96% 29 km
So, 19.05. 20:00 78% 50 km
So, 19.05. 14:00 58% >70 km
So, 19.05. 8:00 94% 35 km
So, 19.05. 2:00 94% 35 km
Ortszeit Relative Feuchte Sichtweite
Di, 21.05. 1:00 81% 35 km
Di, 21.05. 0:00 79% 35 km
Mo, 20.05. 23:00 77% 35 km
Mo, 20.05. 22:00 74% 70 km
Mo, 20.05. 21:00 71% 70 km
Mo, 20.05. 20:00 64% 70 km
Ortszeit Niederschlagsmenge Niederschlagsart
Mo, 20.05. 20:00 0.0 l/m2 in 12 Std. -
Mo, 20.05. 14:00 0.0 l/m2 in 6 Std. -
Mo, 20.05. 8:00 4 l/m2 in 12 Std. -
Mo, 20.05. 2:00 0.9 l/m2 in 6 Std. Regenschauer
So, 19.05. 20:00 0.0 l/m2 in 12 Std. -
So, 19.05. 14:00 0.0 l/m2 in 6 Std. -
So, 19.05. 8:00 11 l/m2 in 12 Std. -
So, 19.05. 2:00 1 l/m2 in 6 Std. Schauer
Ortszeit Niederschlagsmenge Niederschlagsart
Di, 21.05. 1:00 0.0 l/m2 in 1 Std. -
Di, 21.05. 0:00 0.0 l/m2 in 1 Std. -
Mo, 20.05. 23:00 0.0 l/m2 in 1 Std. -
Mo, 20.05. 22:00 0.0 l/m2 in 1 Std. -
Mo, 20.05. 21:00 0.0 l/m2 in 1 Std. -
Mo, 20.05. 20:00 0.0 l/m2 in 1 Std. -
Ortszeit Stärke Spitze Richtung
km/h Bft. km/h Grad Sektor
Mo, 20.05. 20:00 7 2 - 50° NO
Mo, 20.05. 14:00 11 2 - 60° NO
Mo, 20.05. 8:00 4 1 - 220° SW
Mo, 20.05. 2:00 7 2 - 210° SW
So, 19.05. 20:00 7 2 - 240° SW
So, 19.05. 14:00 11 2 40 240° SW
So, 19.05. 8:00 22 4 40 230° SW
So, 19.05. 2:00 18 3 - 220° SW
Ortszeit Stärke Spitze Richtung
km/h Bft. km/h Grad Sektor
Di, 21.05. 1:00 7 2 - uml. uml.
Di, 21.05. 0:00 11 2 - 150° SO
Mo, 20.05. 23:00 11 2 - 100° O
Mo, 20.05. 22:00 7 2 - uml. uml.
Mo, 20.05. 21:00 7 2 - 80° O
Mo, 20.05. 20:00 7 2 - 50° NO
Ortszeit Untergrenze Bedeckung Gattung
total tief tief mittel hoch
Mo, 20.05. 20:00 1170 m 7/8 1/8 Sc - Cs
Mo, 20.05. 14:00 960 m 6/8 5/8 Cu Ac Ci
Mo, 20.05. 8:00 240 m 1/8 1/8 Cu Ac -
Mo, 20.05. 2:00 900 m - 4/8 - - -
So, 19.05. 20:00 990 m 4/8 3/8 Cb Ac Ci
So, 19.05. 14:00 990 m 7/8 7/8 Cu Ac -
So, 19.05. 8:00 120 m 4/8 2/8 Cu Ac -
So, 19.05. 2:00 1380 m - 8/8 - - -
Ortszeit Bedeckungsgrad in Achtel und Wolkenuntergrenze
Di, 21.05. 1:00 2(5400m) 7(6600m)
Di, 21.05. 0:00 7(6300m)
Mo, 20.05. 23:00 1(6000m) 8(7500m)
Mo, 20.05. 22:00 7(7800m)
Mo, 20.05. 21:00 1(1380m) 3(6900m) 6(9000m)
Mo, 20.05. 20:00 1(1170m) 7(7800m)
Ortszeit Stationsdruck (hPa) Tendenz (hPa in 3 Std.)
Mo, 20.05. 20:00 885 - 0,1
Mo, 20.05. 14:00 886 - 0,1
Mo, 20.05. 8:00 886 + 0,5
Mo, 20.05. 2:00 886 0,0
So, 19.05. 20:00 886 + 0,3
So, 19.05. 14:00 886 - 0,3
So, 19.05. 8:00 885 - 0,2
So, 19.05. 2:00 885 - 0,1
Ortszeit Stationsdruck (hPa) Tendenz (hPa in 3 Std.)
Di, 21.05. 1:00 885 - 0,7
Di, 21.05. 0:00 885 - 0,3
Mo, 20.05. 23:00 885 0,0
Mo, 20.05. 22:00 886 + 0,5
Mo, 20.05. 21:00 886 + 0,2
Mo, 20.05. 20:00 885 - 0,1
Ortszeit Schneehöhe (cm)
Mo, 20.05. 20:00 -
Mo, 20.05. 14:00 -
Mo, 20.05. 8:00 -
Mo, 20.05. 2:00 -
So, 19.05. 20:00 -
So, 19.05. 14:00 -
So, 19.05. 8:00 -
So, 19.05. 2:00 -
Ortszeit Schneehöhe (cm)
Di, 21.05. 1:00 -
Di, 21.05. 0:00 -
Mo, 20.05. 23:00 -
Mo, 20.05. 22:00 -
Mo, 20.05. 21:00 -
Mo, 20.05. 20:00 -
Link zu dieser Seite / Seite empfehlen

Das Wetter in ...